createdAt,value
2022-08-28T00:01:01.819Z,9.20
2022-08-28T00:03:30.346Z,10.50
2022-08-28T00:05:57.518Z,9.80
2022-08-28T00:08:24.829Z,8.82
2022-08-28T00:10:51.956Z,9.40
2022-08-28T00:13:21.616Z,9.30
2022-08-28T00:15:52.094Z,9.88
2022-08-28T00:18:19.450Z,9.27
2022-08-28T00:20:47.780Z,9.40
2022-08-28T00:23:15.272Z,9.50
2022-08-28T00:25:42.227Z,10.40
2022-08-28T00:28:13.290Z,9.70
2022-08-28T00:30:52.999Z,9.55
2022-08-28T00:33:27.323Z,10.15
2022-08-28T00:35:54.990Z,9.80
2022-08-28T00:38:24.041Z,9.73
2022-08-28T00:40:55.302Z,9.90
2022-08-28T00:43:37.069Z,12.00
2022-08-28T00:46:06.704Z,9.57
2022-08-28T00:48:33.696Z,12.25
2022-08-28T00:51:20.561Z,9.15
2022-08-28T00:53:47.609Z,10.00
2022-08-28T00:56:17.208Z,10.52
2022-08-28T00:58:46.161Z,10.10
2022-08-28T01:01:14.093Z,10.27
2022-08-28T01:03:42.168Z,10.35
2022-08-28T01:06:09.514Z,9.80
2022-08-28T01:08:38.883Z,10.43
2022-08-28T01:11:07.378Z,9.50
2022-08-28T01:13:36.516Z,10.00
2022-08-28T01:16:05.517Z,9.80
2022-08-28T01:18:34.262Z,10.20
2022-08-28T01:21:32.269Z,10.57
2022-08-28T01:24:02.414Z,10.60
2022-08-28T01:26:30.074Z,9.27
2022-08-28T01:28:58.609Z,9.02
2022-08-28T01:31:27.850Z,9.88
2022-08-28T01:33:55.613Z,10.52
2022-08-28T01:36:22.559Z,9.43
2022-08-28T01:38:56.008Z,8.85
2022-08-28T01:41:22.933Z,9.10
2022-08-28T01:43:49.962Z,9.23
2022-08-28T01:46:18.126Z,9.68
2022-08-28T01:48:45.443Z,9.30
2022-08-28T01:51:13.537Z,9.45
2022-08-28T01:53:41.620Z,9.10
2022-08-28T01:56:14.566Z,9.10
2022-08-28T01:58:42.036Z,10.02
2022-08-28T02:01:15.160Z,9.33
2022-08-28T02:03:45.220Z,10.10
2022-08-28T02:06:13.335Z,8.82
2022-08-28T02:08:40.254Z,9.48
2022-08-28T02:11:08.750Z,10.57
2022-08-28T02:13:37.144Z,8.52
2022-08-28T02:16:06.356Z,9.32
2022-08-28T02:18:33.372Z,9.20
2022-08-28T02:21:00.312Z,9.70
2022-08-28T02:23:27.830Z,10.33
2022-08-28T02:25:54.780Z,10.30
2022-08-28T02:28:21.721Z,10.52
2022-08-28T02:30:48.681Z,10.00
2022-08-28T02:33:16.235Z,9.23
2022-08-28T02:35:43.340Z,10.57
2022-08-28T02:38:11.064Z,9.13
2022-08-28T02:40:41.269Z,9.60
2022-08-28T02:43:08.239Z,10.27
2022-08-28T02:45:35.904Z,9.75
2022-08-28T02:48:03.612Z,10.70
2022-08-28T02:50:31.986Z,9.90
2022-08-28T02:52:58.994Z,10.20
2022-08-28T02:55:26.301Z,9.30
2022-08-28T02:57:54.644Z,9.85
2022-08-28T03:00:25.238Z,10.35
2022-08-28T03:02:53.230Z,9.98
2022-08-28T03:05:23.645Z,9.90
2022-08-28T03:07:53.348Z,10.20
2022-08-28T03:10:21.817Z,9.70
2022-08-28T03:12:49.337Z,11.00
2022-08-28T03:15:18.031Z,10.48
2022-08-28T03:17:45.460Z,9.50
2022-08-28T03:20:15.910Z,10.60
2022-08-28T03:23:01.901Z,9.88
2022-08-28T03:25:29.134Z,10.60
2022-08-28T03:27:56.419Z,10.40
2022-08-28T03:30:23.733Z,10.05
2022-08-28T03:32:51.026Z,10.15
2022-08-28T03:35:18.392Z,10.20
2022-08-28T03:37:45.317Z,9.88
2022-08-28T03:40:13.749Z,10.77
2022-08-28T03:42:40.902Z,10.18
2022-08-28T03:45:10.761Z,10.85
2022-08-28T03:47:39.185Z,11.10
2022-08-28T03:50:08.173Z,10.63
2022-08-28T03:52:38.709Z,10.68
2022-08-28T03:55:08.690Z,12.23
2022-08-28T03:57:36.921Z,10.15
2022-08-28T04:00:09.728Z,10.43
2022-08-28T04:02:36.658Z,11.10
2022-08-28T04:05:05.496Z,10.80
2022-08-28T04:07:32.525Z,9.57
2022-08-28T04:09:59.516Z,10.23
2022-08-28T04:12:26.478Z,10.40
2022-08-28T04:14:55.089Z,12.00
2022-08-28T04:17:21.961Z,9.75
2022-08-28T04:19:52.973Z,11.00
2022-08-28T04:22:20.218Z,10.38
2022-08-28T04:24:50.695Z,9.30
2022-08-28T04:27:17.600Z,10.93
2022-08-28T04:29:44.624Z,10.90
2022-08-28T04:32:11.663Z,10.43
2022-08-28T04:34:39.218Z,11.00
2022-08-28T04:37:06.568Z,9.88
2022-08-28T04:39:34.096Z,9.40
2022-08-28T04:42:01.153Z,10.10
2022-08-28T04:44:28.153Z,11.80
2022-08-28T04:46:55.102Z,10.70
2022-08-28T04:49:26.057Z,10.55
2022-08-28T04:51:53.753Z,11.90
2022-08-28T04:54:21.378Z,10.70
2022-08-28T04:56:48.354Z,10.55
2022-08-28T04:59:16.420Z,11.75
2022-08-28T05:01:43.792Z,10.40
2022-08-28T05:04:11.705Z,10.90
2022-08-28T05:06:46.166Z,10.83
2022-08-28T05:09:16.590Z,10.32
2022-08-28T05:11:44.272Z,10.35
2022-08-28T05:14:15.876Z,12.07
2022-08-28T05:16:49.081Z,10.80
2022-08-28T05:19:18.173Z,10.00
2022-08-28T05:21:45.177Z,11.20
2022-08-28T05:24:13.826Z,11.00
2022-08-28T05:26:41.688Z,11.02
2022-08-28T05:29:09.958Z,10.60
2022-08-28T05:31:39.113Z,10.77
2022-08-28T05:34:07.008Z,12.93
2022-08-28T05:36:36.709Z,10.55
2022-08-28T05:39:07.387Z,11.32
2022-08-28T05:41:34.694Z,11.02
2022-08-28T05:44:08.660Z,10.70
2022-08-28T05:46:39.678Z,10.60
2022-08-28T05:49:10.201Z,11.07
2022-08-28T05:51:40.953Z,12.68
2022-08-28T05:54:08.815Z,14.80
2022-08-28T05:56:38.541Z,15.67
2022-08-28T05:59:09.392Z,15.55
2022-08-28T06:01:40.507Z,16.30
2022-08-28T06:04:15.384Z,16.08
2022-08-28T06:06:43.257Z,15.43
2022-08-28T06:09:19.384Z,15.13
2022-08-28T06:11:47.388Z,15.60
2022-08-28T06:14:17.477Z,14.95
2022-08-28T06:16:47.456Z,16.42
2022-08-28T06:19:15.200Z,15.50
2022-08-28T06:21:42.081Z,16.27
2022-08-28T06:24:12.078Z,15.77
2022-08-28T06:26:39.538Z,15.20
2022-08-28T06:29:09.261Z,15.13
2022-08-28T06:31:36.354Z,15.00
2022-08-28T06:34:04.745Z,15.18
2022-08-28T06:36:34.439Z,14.57
2022-08-28T06:39:02.864Z,14.55
2022-08-28T06:41:32.120Z,14.38
2022-08-28T06:43:59.157Z,14.98
2022-08-28T06:46:26.774Z,15.55
2022-08-28T06:48:53.858Z,14.75
2022-08-28T06:51:23.097Z,16.02
2022-08-28T06:53:52.591Z,14.65
2022-08-28T06:56:26.876Z,14.43
2022-08-28T06:58:57.474Z,14.07
2022-08-28T07:01:33.569Z,14.60
2022-08-28T07:04:04.385Z,15.60
2022-08-28T07:06:35.288Z,14.30
2022-08-28T07:09:05.279Z,15.65
2022-08-28T07:11:33.813Z,14.50
2022-08-28T07:14:01.942Z,14.20
2022-08-28T07:16:33.005Z,14.00
2022-08-28T07:19:02.653Z,14.00
2022-08-28T07:21:31.088Z,14.25
2022-08-28T07:23:58.378Z,14.00
2022-08-28T07:26:26.477Z,12.98
2022-08-28T07:28:59.506Z,12.40
2022-08-28T07:31:44.343Z,12.75
2022-08-28T07:34:14.142Z,12.25
2022-08-28T07:36:41.882Z,11.57
2022-08-28T07:39:10.657Z,11.90
2022-08-28T07:41:40.236Z,11.10
2022-08-28T07:44:27.409Z,11.13
2022-08-28T07:46:59.697Z,11.07
2022-08-28T07:49:27.340Z,10.68
2022-08-28T07:51:54.627Z,10.20
2022-08-28T07:54:23.124Z,10.50
2022-08-28T07:56:50.611Z,10.13
2022-08-28T07:59:19.366Z,10.23
2022-08-28T08:01:48.851Z,9.10
2022-08-28T08:04:17.291Z,9.90
2022-08-28T08:06:45.089Z,9.55
2022-08-28T08:09:15.020Z,9.80
2022-08-28T08:11:42.696Z,9.50
2022-08-28T08:14:10.245Z,10.40
2022-08-28T08:16:40.333Z,11.05
2022-08-28T08:19:13.857Z,11.70
2022-08-28T08:21:43.293Z,11.90
2022-08-28T08:24:12.129Z,11.60
2022-08-28T08:27:00.114Z,13.33
2022-08-28T08:29:31.726Z,12.82
2022-08-28T08:32:05.192Z,14.48
2022-08-28T08:34:35.336Z,15.43
2022-08-28T08:37:02.589Z,15.25
2022-08-28T08:39:29.510Z,15.18
2022-08-28T08:42:00.698Z,15.80
2022-08-28T08:44:33.568Z,15.10
2022-08-28T08:47:16.829Z,14.65
2022-08-28T08:49:48.399Z,15.27
2022-08-28T08:52:38.431Z,15.90
2022-08-28T08:55:27.741Z,15.60
2022-08-28T08:58:11.427Z,14.27
2022-08-28T09:00:50.854Z,15.20
2022-08-28T09:03:46.838Z,14.57
2022-08-28T09:06:45.609Z,15.23
2022-08-28T09:09:24.510Z,14.05
2022-08-28T09:11:57.897Z,14.30
2022-08-28T09:14:41.226Z,14.47
2022-08-28T09:17:10.709Z,12.65
2022-08-28T09:19:37.612Z,13.32
2022-08-28T09:22:04.765Z,13.30
2022-08-28T09:24:34.036Z,13.97
2022-08-28T09:27:12.336Z,12.40
2022-08-28T09:29:47.135Z,13.13
2022-08-28T09:32:29.839Z,13.50
2022-08-28T09:35:05.943Z,13.63
2022-08-28T09:37:34.978Z,13.10
2022-08-28T09:40:20.773Z,12.75
2022-08-28T09:43:27.857Z,12.68
2022-08-28T09:46:07.870Z,12.43
2022-08-28T09:48:41.162Z,12.77
2022-08-28T09:51:09.907Z,12.90
2022-08-28T09:53:42.933Z,12.63
2022-08-28T09:56:17.856Z,14.30
2022-08-28T09:58:49.702Z,13.32
2022-08-28T10:01:38.584Z,12.80
2022-08-28T10:04:36.501Z,13.00
2022-08-28T10:07:19.802Z,13.10
2022-08-28T10:09:59.044Z,13.00
2022-08-28T10:12:48.476Z,12.80
2022-08-28T10:15:26.976Z,12.30
2022-08-28T10:18:15.589Z,12.70
2022-08-28T10:21:04.065Z,13.88
2022-08-28T10:23:49.661Z,12.75
2022-08-28T10:26:58.325Z,12.80
2022-08-28T10:29:30.998Z,12.10
2022-08-28T10:32:15.150Z,13.73
2022-08-28T10:35:08.602Z,13.00
2022-08-28T10:37:41.665Z,12.98
2022-08-28T10:40:12.726Z,13.05
2022-08-28T10:42:45.847Z,12.30
2022-08-28T10:45:20.898Z,12.50
2022-08-28T10:48:05.186Z,11.63
2022-08-28T10:50:45.488Z,12.35
2022-08-28T10:53:32.638Z,11.60
2022-08-28T10:56:04.433Z,11.52
2022-08-28T10:58:34.389Z,11.90
2022-08-28T11:01:06.311Z,11.30
2022-08-28T11:03:41.862Z,11.00
2022-08-28T11:06:32.082Z,10.48
2022-08-28T11:09:22.524Z,11.10
2022-08-28T11:11:52.170Z,11.40
2022-08-28T11:14:35.661Z,10.55
2022-08-28T11:17:25.265Z,9.93
2022-08-28T11:20:13.228Z,9.48
2022-08-28T11:22:46.213Z,9.80
2022-08-28T11:25:32.621Z,9.70
2022-08-28T11:28:17.808Z,9.15
2022-08-28T11:30:47.779Z,9.30
2022-08-28T11:33:41.174Z,8.85
2022-08-28T11:36:20.185Z,8.73
2022-08-28T11:38:53.677Z,9.00
2022-08-28T11:41:28.531Z,9.10
2022-08-28T11:44:13.183Z,8.80
2022-08-28T11:47:03.936Z,8.60
2022-08-28T11:49:33.912Z,8.05
2022-08-28T11:52:45.433Z,7.70
2022-08-28T11:55:32.010Z,8.23
2022-08-28T12:00:27.639Z,7.78
2022-08-28T12:03:00.258Z,7.20
2022-08-28T12:05:33.182Z,7.80
2022-08-28T12:08:02.450Z,7.30
2022-08-28T12:10:30.654Z,7.68
2022-08-28T12:13:01.953Z,7.40
2022-08-28T12:15:28.777Z,7.50
2022-08-28T12:18:02.017Z,8.35
2022-08-28T12:20:40.133Z,7.25
2022-08-28T12:23:34.941Z,7.40
2022-08-28T12:26:11.269Z,8.02
2022-08-28T12:28:45.387Z,7.63
2022-08-28T12:32:12.099Z,8.23
2022-08-28T12:34:50.300Z,8.02
2022-08-28T12:37:52.319Z,8.95
2022-08-28T12:40:41.453Z,8.60
2022-08-28T12:43:11.182Z,7.60
2022-08-28T12:45:49.553Z,7.47
2022-08-28T12:48:17.904Z,7.22
2022-08-28T12:50:44.887Z,7.57
2022-08-28T12:53:17.803Z,7.00
2022-08-28T12:55:46.576Z,7.70
2022-08-28T12:58:30.207Z,7.68
2022-08-28T13:01:01.187Z,7.03
2022-08-28T13:03:28.618Z,6.55
2022-08-28T13:06:06.317Z,7.70
2022-08-28T13:08:37.717Z,8.25
2022-08-28T13:11:04.954Z,6.90
2022-08-28T13:13:34.904Z,7.22
2022-08-28T13:16:06.520Z,7.57
2022-08-28T13:18:43.526Z,7.00
2022-08-28T13:21:32.930Z,6.85
2022-08-28T13:24:21.845Z,6.40
2022-08-28T13:26:59.254Z,7.43
2022-08-28T13:29:26.649Z,7.10
2022-08-28T13:31:58.618Z,6.90
2022-08-28T13:34:29.159Z,7.70
2022-08-28T13:37:07.293Z,8.02
2022-08-28T13:39:41.926Z,6.85
2022-08-28T13:42:13.788Z,6.13
2022-08-28T13:44:50.699Z,6.88
2022-08-28T13:47:17.866Z,6.30
2022-08-28T13:49:44.985Z,8.00
2022-08-28T13:52:12.416Z,7.00
2022-08-28T13:54:43.546Z,8.00
2022-08-28T13:57:11.015Z,7.20
2022-08-28T13:59:38.045Z,6.35
2022-08-28T14:02:25.899Z,6.93
2022-08-28T14:04:53.696Z,5.80
2022-08-28T14:07:20.685Z,6.82
2022-08-28T14:09:47.840Z,6.70
2022-08-28T14:12:15.337Z,7.50
2022-08-28T14:14:42.496Z,6.90
2022-08-28T14:17:10.128Z,6.80
2022-08-28T14:19:37.504Z,6.80
2022-08-28T14:22:05.030Z,7.40
2022-08-28T14:24:32.652Z,6.30
2022-08-28T14:26:59.712Z,6.65
2022-08-28T14:29:26.617Z,6.90
2022-08-28T14:31:53.831Z,6.10
2022-08-28T14:34:22.925Z,6.33
2022-08-28T14:36:55.024Z,5.70
2022-08-28T14:39:25.092Z,5.95
2022-08-28T14:41:53.345Z,5.72
2022-08-28T14:44:21.935Z,6.18
2022-08-28T14:46:50.267Z,6.07
2022-08-28T14:49:19.217Z,7.10
2022-08-28T14:51:47.664Z,6.50
2022-08-28T14:54:17.109Z,6.18
2022-08-28T14:56:45.514Z,5.88
2022-08-28T14:59:23.781Z,6.72
2022-08-28T15:01:52.674Z,6.95
2022-08-28T15:04:22.847Z,6.30
2022-08-28T15:06:55.052Z,7.35
2022-08-28T15:09:21.930Z,6.78
2022-08-28T15:11:48.902Z,6.78
2022-08-28T15:14:15.768Z,6.10
2022-08-28T15:16:45.398Z,6.70
2022-08-28T15:19:15.797Z,6.30
2022-08-28T15:21:49.557Z,6.32
2022-08-28T15:24:22.005Z,6.50
2022-08-28T15:26:49.456Z,7.27
2022-08-28T15:29:16.845Z,6.00
2022-08-28T15:31:46.857Z,6.15
2022-08-28T15:34:17.199Z,16.73
2022-08-28T15:36:45.362Z,43.10
2022-08-28T15:39:40.733Z,25.95
2022-08-28T15:42:08.553Z,9.07
2022-08-28T15:44:35.640Z,7.32
2022-08-28T15:47:03.096Z,6.72
2022-08-28T15:49:32.270Z,7.45
2022-08-28T15:52:10.961Z,6.15
2022-08-28T15:54:38.037Z,7.80
2022-08-28T15:57:05.156Z,8.07
2022-08-28T15:59:38.105Z,6.00
2022-08-28T16:02:16.331Z,8.38
2022-08-28T16:04:43.440Z,5.80
2022-08-28T16:07:11.072Z,7.10
2022-08-28T16:09:38.504Z,7.05
2022-08-28T16:12:05.844Z,6.70
2022-08-28T16:14:34.056Z,7.20
2022-08-28T16:17:05.804Z,6.57
2022-08-28T16:19:37.689Z,6.57
2022-08-28T16:22:04.776Z,5.57
2022-08-28T16:24:31.672Z,6.50
2022-08-28T16:26:58.665Z,7.90
2022-08-28T16:29:25.657Z,6.82
2022-08-28T16:31:53.188Z,6.75
2022-08-28T16:34:20.281Z,7.50
2022-08-28T16:36:48.472Z,7.10
2022-08-28T16:39:15.657Z,7.10
2022-08-28T16:41:46.276Z,8.70
2022-08-28T16:44:13.189Z,6.40
2022-08-28T16:46:40.278Z,6.70
2022-08-28T16:49:09.299Z,7.30
2022-08-28T16:51:36.877Z,7.70
2022-08-28T16:54:03.961Z,7.35
2022-08-28T16:56:30.898Z,6.00
2022-08-28T16:58:57.848Z,7.68
2022-08-28T17:01:25.449Z,6.75
2022-08-28T17:03:54.760Z,8.03
2022-08-28T17:06:29.421Z,7.27
2022-08-28T17:08:58.090Z,6.50
2022-08-28T17:11:28.521Z,6.25
2022-08-28T17:13:55.985Z,7.30
2022-08-28T17:16:24.812Z,7.72
2022-08-28T17:18:52.964Z,6.20
2022-08-28T17:21:39.628Z,7.05
2022-08-28T17:24:07.146Z,6.68
2022-08-28T17:26:34.370Z,8.70
2022-08-28T17:29:01.546Z,6.20
2022-08-28T17:31:28.740Z,6.82
2022-08-28T17:33:55.918Z,6.07
2022-08-28T17:36:33.194Z,5.70
2022-08-28T17:39:08.652Z,6.65
2022-08-28T17:41:36.434Z,6.90
2022-08-28T17:44:05.064Z,6.90
2022-08-28T17:46:37.525Z,8.50
2022-08-28T17:49:06.641Z,6.30
2022-08-28T17:51:42.643Z,5.93
2022-08-28T17:54:18.583Z,6.87
2022-08-28T17:56:46.410Z,7.63
2022-08-28T17:59:14.581Z,6.45
2022-08-28T18:01:42.926Z,6.70
2022-08-28T18:04:10.830Z,5.90
2022-08-28T18:06:38.018Z,6.63
2022-08-28T18:09:06.005Z,6.78
2022-08-28T18:11:32.921Z,7.90
2022-08-28T18:13:59.862Z,6.15
2022-08-28T18:16:31.197Z,7.30
2022-08-28T18:19:00.128Z,7.30
2022-08-28T18:21:27.658Z,7.38
2022-08-28T18:23:54.658Z,6.65
2022-08-28T18:26:21.606Z,8.30
2022-08-28T18:28:49.026Z,6.20
2022-08-28T18:31:16.045Z,7.00
2022-08-28T18:33:43.054Z,6.50
2022-08-28T18:36:12.610Z,6.45
2022-08-28T18:38:40.869Z,6.20
2022-08-28T18:41:08.893Z,6.20
2022-08-28T18:43:36.629Z,6.65
2022-08-28T18:46:04.831Z,7.00
2022-08-28T18:48:32.442Z,8.02
2022-08-28T18:50:59.477Z,6.88
2022-08-28T18:53:26.575Z,7.90
2022-08-28T18:55:55.076Z,6.57
2022-08-28T18:58:22.856Z,7.47
2022-08-28T19:00:49.929Z,7.20
2022-08-28T19:03:17.468Z,7.40
2022-08-28T19:05:44.380Z,7.10
2022-08-28T19:08:11.535Z,6.50
2022-08-28T19:10:38.598Z,7.43
2022-08-28T19:13:06.428Z,7.72
2022-08-28T19:15:35.674Z,8.25
2022-08-28T19:18:03.465Z,7.10
2022-08-28T19:20:31.062Z,7.00
2022-08-28T19:22:58.829Z,8.63
2022-08-28T19:25:29.228Z,7.10
2022-08-28T19:28:01.477Z,6.43
2022-08-28T19:30:32.916Z,8.75
2022-08-28T19:33:01.121Z,5.97
2022-08-28T19:35:28.296Z,6.67
2022-08-28T19:37:55.677Z,6.30
2022-08-28T19:40:23.683Z,6.03
2022-08-28T19:42:51.382Z,6.13
2022-08-28T19:45:18.786Z,6.40
2022-08-28T19:47:47.084Z,5.60
2022-08-28T19:50:15.382Z,6.07
2022-08-28T19:52:44.705Z,5.87
2022-08-28T19:55:29.886Z,6.50
2022-08-28T19:57:57.533Z,6.82
2022-08-28T20:00:29.983Z,8.55
2022-08-28T20:02:57.783Z,6.17
2022-08-28T20:05:24.975Z,6.00
2022-08-28T20:07:52.373Z,6.43
2022-08-28T20:10:19.745Z,6.63
2022-08-28T20:12:48.076Z,8.00
2022-08-28T20:15:17.101Z,6.30
2022-08-28T20:17:49.887Z,7.38
2022-08-28T20:20:20.094Z,6.60
2022-08-28T20:22:47.279Z,6.35
2022-08-28T20:25:15.573Z,6.50
2022-08-28T20:27:42.588Z,5.45
2022-08-28T20:30:11.083Z,5.90
2022-08-28T20:32:40.465Z,6.97
2022-08-28T20:35:10.334Z,6.30
2022-08-28T20:37:44.958Z,6.10
2022-08-28T20:40:15.940Z,6.40
2022-08-28T20:42:43.758Z,6.30
2022-08-28T20:45:11.889Z,6.22
2022-08-28T20:47:38.893Z,6.43
2022-08-28T20:50:06.954Z,6.30
2022-08-28T20:52:33.883Z,6.18
2022-08-28T20:55:00.788Z,6.43
2022-08-28T20:57:27.751Z,7.00
2022-08-28T20:59:54.662Z,7.10
2022-08-28T21:02:24.578Z,5.90
2022-08-28T21:04:53.361Z,6.10
2022-08-28T21:07:22.376Z,6.70
2022-08-28T21:10:07.023Z,6.20
2022-08-28T21:12:36.748Z,6.30
2022-08-28T21:15:05.868Z,6.22
2022-08-28T21:17:32.749Z,6.40
2022-08-28T21:20:03.194Z,6.15
2022-08-28T21:22:32.044Z,5.75
2022-08-28T21:25:00.045Z,6.72
2022-08-28T21:27:27.327Z,6.15
2022-08-28T21:29:58.695Z,6.60
2022-08-28T21:32:26.984Z,5.57
2022-08-28T21:34:55.057Z,6.38
2022-08-28T21:37:22.208Z,6.68
2022-08-28T21:39:49.117Z,6.60
2022-08-28T21:42:16.169Z,6.05
2022-08-28T21:44:48.308Z,8.60
2022-08-28T21:47:19.247Z,5.55
2022-08-28T21:49:49.516Z,7.85
2022-08-28T21:52:18.309Z,6.13
2022-08-28T21:54:45.257Z,5.60
2022-08-28T21:57:12.173Z,6.75
2022-08-28T21:59:39.110Z,6.30
2022-08-28T22:02:06.741Z,6.00
2022-08-28T22:04:34.868Z,6.88
2022-08-28T22:07:02.109Z,7.30
2022-08-28T22:09:29.114Z,6.70
2022-08-28T22:11:56.012Z,6.80
2022-08-28T22:14:25.109Z,5.60
2022-08-28T22:16:52.333Z,6.53
2022-08-28T22:19:19.343Z,6.72
2022-08-28T22:22:04.651Z,5.90
2022-08-28T22:24:31.556Z,7.75
2022-08-28T22:26:58.613Z,7.32
2022-08-28T22:29:25.887Z,5.63
2022-08-28T22:31:52.897Z,6.15
2022-08-28T22:34:20.191Z,7.15
2022-08-28T22:36:47.174Z,5.80
2022-08-28T22:39:14.230Z,7.20
2022-08-28T22:41:42.039Z,7.13
2022-08-28T22:44:09.931Z,6.68
2022-08-28T22:46:36.890Z,8.90
2022-08-28T22:49:04.502Z,7.15
2022-08-28T22:51:34.359Z,7.13
2022-08-28T22:54:01.855Z,6.10
2022-08-28T22:56:28.893Z,6.60
2022-08-28T22:58:55.867Z,7.43
2022-08-28T23:01:26.426Z,6.20
2022-08-28T23:03:53.505Z,6.20
2022-08-28T23:06:21.599Z,7.00
2022-08-28T23:08:48.761Z,6.20
2022-08-28T23:11:15.877Z,6.85
2022-08-28T23:13:42.834Z,7.63
2022-08-28T23:16:11.236Z,8.57
2022-08-28T23:19:06.013Z,6.40
2022-08-28T23:21:28.381Z,6.32
2022-08-28T23:23:56.231Z,6.60
2022-08-28T23:26:24.782Z,6.13
2022-08-28T23:28:52.562Z,6.97
2022-08-28T23:31:19.696Z,6.50
2022-08-28T23:33:48.581Z,6.95
2022-08-28T23:36:15.887Z,6.47
2022-08-28T23:38:45.372Z,6.67
2022-08-28T23:41:12.643Z,6.50
2022-08-28T23:43:40.425Z,6.20
2022-08-28T23:46:09.349Z,7.30
2022-08-28T23:48:40.990Z,8.00
2022-08-28T23:51:12.431Z,7.15
2022-08-28T23:53:40.897Z,6.72
2022-08-28T23:56:08.325Z,6.70
2022-08-28T23:58:35.728Z,6.00
